sensor_id;sensor_type;location;lat;lon;timestamp;P1;durP1;ratioP1;P2;durP2;ratioP2
73452;SDS011;61687;56.232;43.854;2022-10-20T00:01:22;21.83;;;10.98;;
73452;SDS011;61687;56.232;43.854;2022-10-20T00:03:50;21.48;;;11.13;;
73452;SDS011;61687;56.232;43.854;2022-10-20T00:06:18;21.63;;;10.83;;
73452;SDS011;61687;56.232;43.854;2022-10-20T00:08:49;22.60;;;10.80;;
73452;SDS011;61687;56.232;43.854;2022-10-20T00:11:16;20.40;;;10.18;;
73452;SDS011;61687;56.232;43.854;2022-10-20T00:13:44;18.90;;;9.50;;
73452;SDS011;61687;56.232;43.854;2022-10-20T00:16:11;17.88;;;9.50;;
73452;SDS011;61687;56.232;43.854;2022-10-20T00:18:38;20.17;;;9.57;;
73452;SDS011;61687;56.232;43.854;2022-10-20T00:21:09;18.27;;;9.18;;
73452;SDS011;61687;56.232;43.854;2022-10-20T00:23:37;17.58;;;9.10;;
73452;SDS011;61687;56.232;43.854;2022-10-20T00:26:04;17.45;;;8.68;;
73452;SDS011;61687;56.232;43.854;2022-10-20T00:28:32;18.90;;;9.20;;
73452;SDS011;61687;56.232;43.854;2022-10-20T00:30:59;16.63;;;9.20;;
73452;SDS011;61687;56.232;43.854;2022-10-20T00:33:25;18.02;;;9.68;;
73452;SDS011;61687;56.232;43.854;2022-10-20T00:35:51;17.77;;;10.10;;
73452;SDS011;61687;56.232;43.854;2022-10-20T00:38:17;19.00;;;10.75;;
73452;SDS011;61687;56.232;43.854;2022-10-20T00:40:43;20.53;;;10.90;;
73452;SDS011;61687;56.232;43.854;2022-10-20T00:43:12;19.73;;;10.32;;
73452;SDS011;61687;56.232;43.854;2022-10-20T00:45:40;23.73;;;11.43;;
73452;SDS011;61687;56.232;43.854;2022-10-20T00:48:15;24.85;;;11.25;;
73452;SDS011;61687;56.232;43.854;2022-10-20T00:50:47;25.17;;;11.80;;
73452;SDS011;61687;56.232;43.854;2022-10-20T00:53:18;23.23;;;12.43;;
73452;SDS011;61687;56.232;43.854;2022-10-20T00:55:47;28.10;;;12.48;;
73452;SDS011;61687;56.232;43.854;2022-10-20T00:58:15;25.25;;;11.40;;
73452;SDS011;61687;56.232;43.854;2022-10-20T01:00:42;27.40;;;12.30;;
73452;SDS011;61687;56.232;43.854;2022-10-20T01:03:13;31.75;;;12.40;;
73452;SDS011;61687;56.232;43.854;2022-10-20T01:05:44;26.03;;;11.70;;
73452;SDS011;61687;56.232;43.854;2022-10-20T01:08:10;24.80;;;11.27;;
73452;SDS011;61687;56.232;43.854;2022-10-20T01:11:20;25.52;;;11.82;;
73452;SDS011;61687;56.232;43.854;2022-10-20T01:13:39;21.35;;;10.82;;
73452;SDS011;61687;56.232;43.854;2022-10-20T01:16:25;22.17;;;10.77;;
73452;SDS011;61687;56.232;43.854;2022-10-20T01:25:25;20.13;;;10.32;;
73452;SDS011;61687;56.232;43.854;2022-10-20T01:27:38;22.30;;;10.77;;
73452;SDS011;61687;56.232;43.854;2022-10-20T01:32:54;19.10;;;10.13;;
73452;SDS011;61687;56.232;43.854;2022-10-20T01:35:37;20.60;;;10.30;;
73452;SDS011;61687;56.232;43.854;2022-10-20T01:38:19;21.90;;;10.75;;
73452;SDS011;61687;56.232;43.854;2022-10-20T01:41:08;22.40;;;10.75;;
73452;SDS011;61687;56.232;43.854;2022-10-20T01:43:42;24.00;;;11.27;;
73452;SDS011;61687;56.232;43.854;2022-10-20T01:46:11;22.02;;;11.43;;
73452;SDS011;61687;56.232;43.854;2022-10-20T01:48:39;25.85;;;11.13;;
73452;SDS011;61687;56.232;43.854;2022-10-20T01:51:06;26.98;;;11.57;;
73452;SDS011;61687;56.232;43.854;2022-10-20T01:53:33;24.90;;;11.43;;
73452;SDS011;61687;56.232;43.854;2022-10-20T01:55:59;18.17;;;9.37;;
73452;SDS011;61687;56.232;43.854;2022-10-20T02:01:25;20.40;;;9.80;;
73452;SDS011;61687;56.232;43.854;2022-10-20T02:04:02;22.08;;;10.38;;
73452;SDS011;61687;56.232;43.854;2022-10-20T02:09:40;21.57;;;9.97;;
73452;SDS011;61687;56.232;43.854;2022-10-20T02:12:13;22.67;;;10.40;;
73452;SDS011;61687;56.232;43.854;2022-10-20T02:14:45;26.00;;;11.50;;
73452;SDS011;61687;56.232;43.854;2022-10-20T02:17:12;20.75;;;8.98;;
73452;SDS011;61687;56.232;43.854;2022-10-20T02:19:42;19.85;;;9.45;;
73452;SDS011;61687;56.232;43.854;2022-10-20T02:22:10;20.23;;;8.63;;
73452;SDS011;61687;56.232;43.854;2022-10-20T02:24:39;18.67;;;8.90;;
73452;SDS011;61687;56.232;43.854;2022-10-20T02:27:08;20.38;;;9.35;;
73452;SDS011;61687;56.232;43.854;2022-10-20T02:29:47;18.52;;;9.98;;
73452;SDS011;61687;56.232;43.854;2022-10-20T02:32:19;18.27;;;8.90;;
73452;SDS011;61687;56.232;43.854;2022-10-20T02:34:47;19.43;;;8.63;;
73452;SDS011;61687;56.232;43.854;2022-10-20T02:37:13;20.30;;;10.13;;
73452;SDS011;61687;56.232;43.854;2022-10-20T02:39:39;21.13;;;9.77;;
73452;SDS011;61687;56.232;43.854;2022-10-20T02:42:05;18.58;;;8.73;;
73452;SDS011;61687;56.232;43.854;2022-10-20T02:44:31;19.00;;;7.40;;
73452;SDS011;61687;56.232;43.854;2022-10-20T02:46:57;12.45;;;6.60;;
73452;SDS011;61687;56.232;43.854;2022-10-20T02:49:23;14.10;;;7.13;;
73452;SDS011;61687;56.232;43.854;2022-10-20T02:51:49;13.95;;;7.88;;
73452;SDS011;61687;56.232;43.854;2022-10-20T02:54:15;14.05;;;7.90;;
73452;SDS011;61687;56.232;43.854;2022-10-20T02:56:41;13.73;;;7.43;;
73452;SDS011;61687;56.232;43.854;2022-10-20T02:59:10;16.38;;;7.97;;
73452;SDS011;61687;56.232;43.854;2022-10-20T03:01:38;14.85;;;7.25;;
73452;SDS011;61687;56.232;43.854;2022-10-20T03:04:04;16.13;;;7.80;;
73452;SDS011;61687;56.232;43.854;2022-10-20T03:06:30;15.20;;;7.60;;
73452;SDS011;61687;56.232;43.854;2022-10-20T03:08:56;15.73;;;7.40;;
73452;SDS011;61687;56.232;43.854;2022-10-20T03:11:22;16.53;;;8.00;;
73452;SDS011;61687;56.232;43.854;2022-10-20T03:13:48;16.10;;;7.93;;
73452;SDS011;61687;56.232;43.854;2022-10-20T03:16:14;15.63;;;8.73;;
73452;SDS011;61687;56.232;43.854;2022-10-20T03:18:40;15.05;;;8.48;;
73452;SDS011;61687;56.232;43.854;2022-10-20T03:21:06;17.08;;;8.65;;
73452;SDS011;61687;56.232;43.854;2022-10-20T03:23:32;27.17;;;9.10;;
73452;SDS011;61687;56.232;43.854;2022-10-20T03:26:04;13.30;;;8.32;;
73452;SDS011;61687;56.232;43.854;2022-10-20T03:28:32;16.45;;;8.50;;
73452;SDS011;61687;56.232;43.854;2022-10-20T03:30:58;16.40;;;8.25;;
73452;SDS011;61687;56.232;43.854;2022-10-20T03:33:24;17.73;;;8.65;;
73452;SDS011;61687;56.232;43.854;2022-10-20T03:35:51;17.85;;;8.75;;
73452;SDS011;61687;56.232;43.854;2022-10-20T03:38:16;14.73;;;7.38;;
73452;SDS011;61687;56.232;43.854;2022-10-20T03:40:42;14.70;;;7.22;;
73452;SDS011;61687;56.232;43.854;2022-10-20T03:43:08;14.75;;;7.80;;
73452;SDS011;61687;56.232;43.854;2022-10-20T03:45:34;15.55;;;8.32;;
73452;SDS011;61687;56.232;43.854;2022-10-20T03:48:00;13.55;;;7.82;;
73452;SDS011;61687;56.232;43.854;2022-10-20T03:50:26;20.38;;;8.75;;
73452;SDS011;61687;56.232;43.854;2022-10-20T03:52:52;15.93;;;7.80;;
73452;SDS011;61687;56.232;43.854;2022-10-20T03:55:18;14.82;;;7.75;;
73452;SDS011;61687;56.232;43.854;2022-10-20T03:57:44;14.75;;;8.20;;
73452;SDS011;61687;56.232;43.854;2022-10-20T04:00:11;14.45;;;7.00;;
73452;SDS011;61687;56.232;43.854;2022-10-20T04:02:38;12.63;;;6.63;;
73452;SDS011;61687;56.232;43.854;2022-10-20T04:05:07;11.85;;;6.68;;
73452;SDS011;61687;56.232;43.854;2022-10-20T04:07:33;13.65;;;6.57;;
73452;SDS011;61687;56.232;43.854;2022-10-20T04:09:59;11.57;;;5.80;;
73452;SDS011;61687;56.232;43.854;2022-10-20T04:12:26;12.30;;;6.07;;
73452;SDS011;61687;56.232;43.854;2022-10-20T04:14:53;11.77;;;6.00;;
73452;SDS011;61687;56.232;43.854;2022-10-20T04:17:19;11.88;;;7.20;;
73452;SDS011;61687;56.232;43.854;2022-10-20T04:19:45;12.63;;;6.15;;
73452;SDS011;61687;56.232;43.854;2022-10-20T04:22:11;9.20;;;5.85;;
73452;SDS011;61687;56.232;43.854;2022-10-20T04:24:37;14.30;;;6.63;;
73452;SDS011;61687;56.232;43.854;2022-10-20T04:27:03;13.52;;;6.30;;
73452;SDS011;61687;56.232;43.854;2022-10-20T04:29:30;12.18;;;6.15;;
73452;SDS011;61687;56.232;43.854;2022-10-20T04:31:56;9.57;;;6.07;;
73452;SDS011;61687;56.232;43.854;2022-10-20T04:34:22;13.45;;;7.15;;
73452;SDS011;61687;56.232;43.854;2022-10-20T04:36:48;15.47;;;5.73;;
73452;SDS011;61687;56.232;43.854;2022-10-20T04:39:14;11.52;;;6.20;;
73452;SDS011;61687;56.232;43.854;2022-10-20T04:41:40;13.23;;;5.57;;
73452;SDS011;61687;56.232;43.854;2022-10-20T04:44:06;14.57;;;6.17;;
73452;SDS011;61687;56.232;43.854;2022-10-20T04:46:32;16.17;;;6.35;;
73452;SDS011;61687;56.232;43.854;2022-10-20T04:48:58;9.70;;;6.07;;
73452;SDS011;61687;56.232;43.854;2022-10-20T04:51:24;9.10;;;5.90;;
73452;SDS011;61687;56.232;43.854;2022-10-20T04:53:50;10.80;;;5.15;;
73452;SDS011;61687;56.232;43.854;2022-10-20T04:56:19;10.15;;;5.65;;
73452;SDS011;61687;56.232;43.854;2022-10-20T04:58:47;9.40;;;6.10;;
73452;SDS011;61687;56.232;43.854;2022-10-20T05:01:14;10.30;;;5.77;;
73452;SDS011;61687;56.232;43.854;2022-10-20T05:03:39;11.20;;;6.05;;
73452;SDS011;61687;56.232;43.854;2022-10-20T05:06:09;8.70;;;5.28;;
73452;SDS011;61687;56.232;43.854;2022-10-20T05:08:38;9.37;;;5.70;;
73452;SDS011;61687;56.232;43.854;2022-10-20T05:11:05;9.55;;;5.20;;
73452;SDS011;61687;56.232;43.854;2022-10-20T05:13:31;9.05;;;5.50;;
73452;SDS011;61687;56.232;43.854;2022-10-20T05:15:57;12.00;;;5.55;;
73452;SDS011;61687;56.232;43.854;2022-10-20T05:18:23;10.97;;;5.97;;
73452;SDS011;61687;56.232;43.854;2022-10-20T05:20:49;10.98;;;6.47;;
73452;SDS011;61687;56.232;43.854;2022-10-20T05:23:15;10.38;;;5.70;;
73452;SDS011;61687;56.232;43.854;2022-10-20T05:25:40;10.00;;;5.30;;
73452;SDS011;61687;56.232;43.854;2022-10-20T05:28:06;12.85;;;6.88;;
73452;SDS011;61687;56.232;43.854;2022-10-20T05:30:33;8.80;;;6.15;;
73452;SDS011;61687;56.232;43.854;2022-10-20T05:32:59;12.87;;;5.80;;
73452;SDS011;61687;56.232;43.854;2022-10-20T05:35:26;11.95;;;5.28;;
73452;SDS011;61687;56.232;43.854;2022-10-20T05:37:52;11.77;;;5.22;;
73452;SDS011;61687;56.232;43.854;2022-10-20T05:40:18;9.48;;;4.90;;
73452;SDS011;61687;56.232;43.854;2022-10-20T05:42:44;7.53;;;4.83;;
73452;SDS011;61687;56.232;43.854;2022-10-20T05:45:10;7.03;;;4.68;;
73452;SDS011;61687;56.232;43.854;2022-10-20T05:47:36;8.40;;;4.13;;
73452;SDS011;61687;56.232;43.854;2022-10-20T05:50:02;9.20;;;5.20;;
73452;SDS011;61687;56.232;43.854;2022-10-20T05:52:28;12.48;;;5.18;;
73452;SDS011;61687;56.232;43.854;2022-10-20T05:54:54;10.75;;;4.35;;
73452;SDS011;61687;56.232;43.854;2022-10-20T05:57:20;9.37;;;4.80;;
73452;SDS011;61687;56.232;43.854;2022-10-20T05:59:46;9.30;;;4.75;;
73452;SDS011;61687;56.232;43.854;2022-10-20T06:02:12;10.07;;;5.38;;
73452;SDS011;61687;56.232;43.854;2022-10-20T06:04:38;8.20;;;5.05;;
73452;SDS011;61687;56.232;43.854;2022-10-20T06:07:04;12.53;;;5.53;;
73452;SDS011;61687;56.232;43.854;2022-10-20T06:09:30;6.70;;;4.60;;
73452;SDS011;61687;56.232;43.854;2022-10-20T06:11:57;6.05;;;4.80;;
73452;SDS011;61687;56.232;43.854;2022-10-20T06:14:24;6.25;;;4.00;;
73452;SDS011;61687;56.232;43.854;2022-10-20T06:16:50;8.55;;;4.55;;
73452;SDS011;61687;56.232;43.854;2022-10-20T06:19:17;5.67;;;3.23;;
73452;SDS011;61687;56.232;43.854;2022-10-20T06:21:44;7.32;;;4.35;;
73452;SDS011;61687;56.232;43.854;2022-10-20T06:24:10;6.22;;;4.35;;
73452;SDS011;61687;56.232;43.854;2022-10-20T06:26:37;7.82;;;4.47;;
73452;SDS011;61687;56.232;43.854;2022-10-20T06:29:04;7.78;;;3.72;;
73452;SDS011;61687;56.232;43.854;2022-10-20T06:31:33;7.37;;;3.93;;
73452;SDS011;61687;56.232;43.854;2022-10-20T06:33:59;5.63;;;4.03;;
73452;SDS011;61687;56.232;43.854;2022-10-20T06:36:26;7.65;;;3.72;;
73452;SDS011;61687;56.232;43.854;2022-10-20T06:38:53;7.68;;;3.80;;
73452;SDS011;61687;56.232;43.854;2022-10-20T06:41:20;6.90;;;4.03;;
73452;SDS011;61687;56.232;43.854;2022-10-20T06:43:46;8.50;;;4.33;;
73452;SDS011;61687;56.232;43.854;2022-10-20T06:46:16;6.07;;;4.55;;
73452;SDS011;61687;56.232;43.854;2022-10-20T06:48:43;8.18;;;4.32;;
73452;SDS011;61687;56.232;43.854;2022-10-20T06:51:10;6.60;;;4.18;;
73452;SDS011;61687;56.232;43.854;2022-10-20T06:53:38;5.30;;;3.67;;
73452;SDS011;61687;56.232;43.854;2022-10-20T06:56:06;6.07;;;4.15;;
73452;SDS011;61687;56.232;43.854;2022-10-20T06:58:35;8.13;;;4.80;;
73452;SDS011;61687;56.232;43.854;2022-10-20T07:01:12;11.05;;;3.85;;
73452;SDS011;61687;56.232;43.854;2022-10-20T07:03:42;7.22;;;4.45;;
73452;SDS011;61687;56.232;43.854;2022-10-20T07:06:11;6.07;;;3.67;;
73452;SDS011;61687;56.232;43.854;2022-10-20T07:08:38;6.38;;;3.13;;
73452;SDS011;61687;56.232;43.854;2022-10-20T07:11:05;8.13;;;4.05;;
73452;SDS011;61687;56.232;43.854;2022-10-20T07:13:33;6.45;;;4.10;;
73452;SDS011;61687;56.232;43.854;2022-10-20T07:16:01;8.83;;;3.83;;
73452;SDS011;61687;56.232;43.854;2022-10-20T07:18:28;5.43;;;3.63;;
73452;SDS011;61687;56.232;43.854;2022-10-20T07:20:55;6.60;;;3.75;;
73452;SDS011;61687;56.232;43.854;2022-10-20T07:23:23;6.43;;;3.47;;
73452;SDS011;61687;56.232;43.854;2022-10-20T07:25:50;5.35;;;3.58;;
73452;SDS011;61687;56.232;43.854;2022-10-20T07:28:16;4.67;;;3.40;;
73452;SDS011;61687;56.232;43.854;2022-10-20T07:30:42;6.05;;;3.38;;
73452;SDS011;61687;56.232;43.854;2022-10-20T07:33:08;6.60;;;3.72;;
73452;SDS011;61687;56.232;43.854;2022-10-20T07:35:34;4.83;;;3.57;;
73452;SDS011;61687;56.232;43.854;2022-10-20T07:38:00;5.32;;;3.22;;
73452;SDS011;61687;56.232;43.854;2022-10-20T07:40:26;6.05;;;4.10;;
73452;SDS011;61687;56.232;43.854;2022-10-20T07:42:53;5.50;;;3.47;;
73452;SDS011;61687;56.232;43.854;2022-10-20T07:45:19;8.02;;;3.83;;
73452;SDS011;61687;56.232;43.854;2022-10-20T07:47:45;5.00;;;3.33;;
73452;SDS011;61687;56.232;43.854;2022-10-20T07:50:10;5.78;;;3.50;;
73452;SDS011;61687;56.232;43.854;2022-10-20T07:52:37;5.72;;;3.53;;
73452;SDS011;61687;56.232;43.854;2022-10-20T07:55:04;5.40;;;3.45;;
73452;SDS011;61687;56.232;43.854;2022-10-20T07:57:30;7.75;;;3.83;;
73452;SDS011;61687;56.232;43.854;2022-10-20T07:59:56;5.70;;;3.43;;
73452;SDS011;61687;56.232;43.854;2022-10-20T08:02:22;6.05;;;2.80;;
73452;SDS011;61687;56.232;43.854;2022-10-20T08:04:48;4.40;;;3.25;;
73452;SDS011;61687;56.232;43.854;2022-10-20T08:07:14;6.77;;;3.33;;
73452;SDS011;61687;56.232;43.854;2022-10-20T08:09:41;8.77;;;4.22;;
73452;SDS011;61687;56.232;43.854;2022-10-20T08:12:07;4.10;;;2.63;;
73452;SDS011;61687;56.232;43.854;2022-10-20T08:14:33;5.97;;;2.72;;
73452;SDS011;61687;56.232;43.854;2022-10-20T08:17:00;7.53;;;3.85;;
73452;SDS011;61687;56.232;43.854;2022-10-20T08:19:27;6.67;;;3.67;;
73452;SDS011;61687;56.232;43.854;2022-10-20T08:21:53;4.65;;;3.55;;
73452;SDS011;61687;56.232;43.854;2022-10-20T08:24:19;4.55;;;3.00;;
73452;SDS011;61687;56.232;43.854;2022-10-20T08:26:45;5.90;;;3.17;;
73452;SDS011;61687;56.232;43.854;2022-10-20T08:29:11;5.85;;;4.00;;
73452;SDS011;61687;56.232;43.854;2022-10-20T08:31:37;7.57;;;2.90;;
73452;SDS011;61687;56.232;43.854;2022-10-20T08:34:04;8.20;;;3.67;;
73452;SDS011;61687;56.232;43.854;2022-10-20T08:36:31;5.30;;;3.60;;
73452;SDS011;61687;56.232;43.854;2022-10-20T08:38:57;4.65;;;3.25;;
73452;SDS011;61687;56.232;43.854;2022-10-20T08:41:25;5.32;;;3.60;;
73452;SDS011;61687;56.232;43.854;2022-10-20T08:43:55;4.35;;;3.17;;
73452;SDS011;61687;56.232;43.854;2022-10-20T08:46:26;4.20;;;3.03;;
73452;SDS011;61687;56.232;43.854;2022-10-20T08:48:55;5.38;;;3.67;;
73452;SDS011;61687;56.232;43.854;2022-10-20T08:51:22;6.22;;;3.33;;
73452;SDS011;61687;56.232;43.854;2022-10-20T08:53:52;5.43;;;3.65;;
73452;SDS011;61687;56.232;43.854;2022-10-20T08:56:22;4.53;;;3.60;;
73452;SDS011;61687;56.232;43.854;2022-10-20T08:58:50;3.97;;;2.80;;
73452;SDS011;61687;56.232;43.854;2022-10-20T09:01:19;8.25;;;4.10;;
73452;SDS011;61687;56.232;43.854;2022-10-20T09:03:53;5.72;;;3.10;;
73452;SDS011;61687;56.232;43.854;2022-10-20T09:06:22;5.72;;;4.05;;
73452;SDS011;61687;56.232;43.854;2022-10-20T09:08:48;5.20;;;3.88;;
73452;SDS011;61687;56.232;43.854;2022-10-20T09:11:17;6.33;;;3.60;;
73452;SDS011;61687;56.232;43.854;2022-10-20T09:13:45;5.40;;;3.85;;
73452;SDS011;61687;56.232;43.854;2022-10-20T09:16:20;6.07;;;4.32;;
73452;SDS011;61687;56.232;43.854;2022-10-20T09:18:52;5.93;;;4.13;;
73452;SDS011;61687;56.232;43.854;2022-10-20T09:21:23;7.22;;;4.85;;
73452;SDS011;61687;56.232;43.854;2022-10-20T09:23:51;7.60;;;4.53;;
73452;SDS011;61687;56.232;43.854;2022-10-20T09:26:22;6.85;;;4.53;;
73452;SDS011;61687;56.232;43.854;2022-10-20T09:29:33;8.45;;;3.42;;
73452;SDS011;61687;56.232;43.854;2022-10-20T09:32:00;5.30;;;3.38;;
73452;SDS011;61687;56.232;43.854;2022-10-20T09:37:02;8.10;;;4.05;;
73452;SDS011;61687;56.232;43.854;2022-10-20T09:42:13;7.05;;;3.90;;
73452;SDS011;61687;56.232;43.854;2022-10-20T09:45:05;5.33;;;3.77;;
73452;SDS011;61687;56.232;43.854;2022-10-20T09:47:32;7.68;;;3.15;;
73452;SDS011;61687;56.232;43.854;2022-10-20T09:50:00;4.72;;;3.17;;
73452;SDS011;61687;56.232;43.854;2022-10-20T09:52:30;3.78;;;3.22;;
73452;SDS011;61687;56.232;43.854;2022-10-20T09:55:28;4.18;;;2.83;;
73452;SDS011;61687;56.232;43.854;2022-10-20T09:57:57;3.83;;;3.03;;
73452;SDS011;61687;56.232;43.854;2022-10-20T10:06:03;7.43;;;3.15;;
73452;SDS011;61687;56.232;43.854;2022-10-20T10:08:52;8.63;;;3.55;;
73452;SDS011;61687;56.232;43.854;2022-10-20T10:11:19;5.53;;;3.20;;
73452;SDS011;61687;56.232;43.854;2022-10-20T10:13:47;4.95;;;2.92;;
73452;SDS011;61687;56.232;43.854;2022-10-20T10:16:16;3.88;;;2.92;;
73452;SDS011;61687;56.232;43.854;2022-10-20T10:18:45;4.00;;;3.08;;
73452;SDS011;61687;56.232;43.854;2022-10-20T10:21:20;4.25;;;3.58;;
73452;SDS011;61687;56.232;43.854;2022-10-20T10:23:50;4.90;;;2.90;;
73452;SDS011;61687;56.232;43.854;2022-10-20T10:26:41;8.05;;;3.08;;
73452;SDS011;61687;56.232;43.854;2022-10-20T10:29:28;6.57;;;3.55;;
73452;SDS011;61687;56.232;43.854;2022-10-20T10:32:02;5.40;;;3.20;;
73452;SDS011;61687;56.232;43.854;2022-10-20T10:37:34;6.90;;;2.90;;
73452;SDS011;61687;56.232;43.854;2022-10-20T10:40:13;6.95;;;3.13;;
73452;SDS011;61687;56.232;43.854;2022-10-20T10:46:04;5.93;;;3.92;;
73452;SDS011;61687;56.232;43.854;2022-10-20T10:56:55;5.22;;;2.70;;
73452;SDS011;61687;56.232;43.854;2022-10-20T11:07:08;5.38;;;3.20;;
73452;SDS011;61687;56.232;43.854;2022-10-20T11:21:08;4.88;;;2.95;;
73452;SDS011;61687;56.232;43.854;2022-10-20T11:26:31;5.35;;;3.20;;
73452;SDS011;61687;56.232;43.854;2022-10-20T11:28:59;9.37;;;3.40;;
73452;SDS011;61687;56.232;43.854;2022-10-20T11:34:03;5.53;;;3.10;;
73452;SDS011;61687;56.232;43.854;2022-10-20T11:36:37;4.13;;;2.85;;
73452;SDS011;61687;56.232;43.854;2022-10-20T11:39:10;5.20;;;3.20;;
73452;SDS011;61687;56.232;43.854;2022-10-20T11:41:48;3.87;;;2.53;;
73452;SDS011;61687;56.232;43.854;2022-10-20T11:46:59;4.90;;;3.28;;
73452;SDS011;61687;56.232;43.854;2022-10-20T11:49:29;4.78;;;2.95;;
73452;SDS011;61687;56.232;43.854;2022-10-20T12:03:01;3.33;;;2.50;;
73452;SDS011;61687;56.232;43.854;2022-10-20T12:27:17;6.63;;;3.47;;
73452;SDS011;61687;56.232;43.854;2022-10-20T12:29:50;8.75;;;3.38;;
73452;SDS011;61687;56.232;43.854;2022-10-20T12:34:50;4.90;;;3.50;;
73452;SDS011;61687;56.232;43.854;2022-10-20T12:37:29;6.88;;;3.20;;
73452;SDS011;61687;56.232;43.854;2022-10-20T12:40:47;5.85;;;3.28;;
73452;SDS011;61687;56.232;43.854;2022-10-20T12:42:57;5.22;;;3.08;;
73452;SDS011;61687;56.232;43.854;2022-10-20T12:47:55;4.45;;;2.97;;
73452;SDS011;61687;56.232;43.854;2022-10-20T12:50:31;6.00;;;3.00;;
73452;SDS011;61687;56.232;43.854;2022-10-20T12:53:10;6.80;;;3.55;;
73452;SDS011;61687;56.232;43.854;2022-10-20T12:56:03;7.22;;;3.00;;
73452;SDS011;61687;56.232;43.854;2022-10-20T12:58:35;5.30;;;3.50;;
73452;SDS011;61687;56.232;43.854;2022-10-20T13:01:09;5.00;;;3.10;;
73452;SDS011;61687;56.232;43.854;2022-10-20T13:09:36;6.28;;;3.28;;
73452;SDS011;61687;56.232;43.854;2022-10-20T13:11:53;5.65;;;3.75;;
73452;SDS011;61687;56.232;43.854;2022-10-20T13:14:43;6.70;;;4.28;;
73452;SDS011;61687;56.232;43.854;2022-10-20T13:17:24;7.30;;;4.18;;
73452;SDS011;61687;56.232;43.854;2022-10-20T13:20:02;5.72;;;3.95;;
73452;SDS011;61687;56.232;43.854;2022-10-20T13:22:46;6.78;;;4.85;;
73452;SDS011;61687;56.232;43.854;2022-10-20T13:25:18;9.02;;;4.15;;
73452;SDS011;61687;56.232;43.854;2022-10-20T13:28:11;9.95;;;5.75;;
73452;SDS011;61687;56.232;43.854;2022-10-20T13:31:06;6.88;;;4.82;;
73452;SDS011;61687;56.232;43.854;2022-10-20T13:40:01;6.60;;;3.42;;
73452;SDS011;61687;56.232;43.854;2022-10-20T13:50:41;4.70;;;2.80;;
73452;SDS011;61687;56.232;43.854;2022-10-20T13:55:56;5.95;;;3.03;;
73452;SDS011;61687;56.232;43.854;2022-10-20T13:58:23;6.03;;;3.50;;
73452;SDS011;61687;56.232;43.854;2022-10-20T14:01:00;9.00;;;4.10;;
73452;SDS011;61687;56.232;43.854;2022-10-20T14:03:32;5.97;;;3.90;;
73452;SDS011;61687;56.232;43.854;2022-10-20T14:06:05;5.30;;;3.60;;
73452;SDS011;61687;56.232;43.854;2022-10-20T14:08:40;9.45;;;3.83;;
73452;SDS011;61687;56.232;43.854;2022-10-20T14:11:07;5.18;;;3.50;;
73452;SDS011;61687;56.232;43.854;2022-10-20T14:13:35;6.18;;;3.90;;
73452;SDS011;61687;56.232;43.854;2022-10-20T14:16:05;7.20;;;4.18;;
73452;SDS011;61687;56.232;43.854;2022-10-20T14:18:40;5.30;;;3.58;;
73452;SDS011;61687;56.232;43.854;2022-10-20T14:21:16;5.63;;;3.25;;
73452;SDS011;61687;56.232;43.854;2022-10-20T14:23:44;5.67;;;3.73;;
73452;SDS011;61687;56.232;43.854;2022-10-20T14:26:18;5.75;;;3.75;;
73452;SDS011;61687;56.232;43.854;2022-10-20T14:28:46;6.18;;;3.95;;
73452;SDS011;61687;56.232;43.854;2022-10-20T14:31:15;5.97;;;4.25;;
73452;SDS011;61687;56.232;43.854;2022-10-20T14:33:42;12.40;;;4.20;;
73452;SDS011;61687;56.232;43.854;2022-10-20T14:36:19;8.67;;;3.77;;
73452;SDS011;61687;56.232;43.854;2022-10-20T14:38:50;8.65;;;3.58;;
73452;SDS011;61687;56.232;43.854;2022-10-20T14:43:50;5.80;;;3.70;;
73452;SDS011;61687;56.232;43.854;2022-10-20T14:46:33;5.78;;;3.28;;
73452;SDS011;61687;56.232;43.854;2022-10-20T14:49:02;4.13;;;3.30;;
73452;SDS011;61687;56.232;43.854;2022-10-20T14:51:40;7.85;;;3.10;;
73452;SDS011;61687;56.232;43.854;2022-10-20T14:54:51;4.32;;;2.72;;
73452;SDS011;61687;56.232;43.854;2022-10-20T14:57:01;7.95;;;3.40;;
73452;SDS011;61687;56.232;43.854;2022-10-20T14:59:28;9.20;;;3.88;;
73452;SDS011;61687;56.232;43.854;2022-10-20T15:02:00;5.28;;;3.83;;
73452;SDS011;61687;56.232;43.854;2022-10-20T15:04:36;6.10;;;3.78;;
73452;SDS011;61687;56.232;43.854;2022-10-20T15:09:56;11.70;;;4.05;;
73452;SDS011;61687;56.232;43.854;2022-10-20T15:12:37;7.78;;;4.60;;
73452;SDS011;61687;56.232;43.854;2022-10-20T15:17:45;6.47;;;3.88;;
73452;SDS011;61687;56.232;43.854;2022-10-20T15:23:00;6.68;;;3.95;;
73452;SDS011;61687;56.232;43.854;2022-10-20T15:25:35;5.53;;;3.67;;
73452;SDS011;61687;56.232;43.854;2022-10-20T15:28:02;5.40;;;3.83;;
73452;SDS011;61687;56.232;43.854;2022-10-20T15:30:29;13.45;;;4.00;;
73452;SDS011;61687;56.232;43.854;2022-10-20T15:32:56;6.63;;;4.32;;
73452;SDS011;61687;56.232;43.854;2022-10-20T15:35:22;8.98;;;3.78;;
73452;SDS011;61687;56.232;43.854;2022-10-20T15:37:49;4.93;;;3.35;;
73452;SDS011;61687;56.232;43.854;2022-10-20T15:40:17;6.25;;;3.67;;
73452;SDS011;61687;56.232;43.854;2022-10-20T15:42:44;7.05;;;3.45;;
73452;SDS011;61687;56.232;43.854;2022-10-20T15:45:29;8.60;;;4.38;;
73452;SDS011;61687;56.232;43.854;2022-10-20T15:47:59;5.85;;;3.55;;
73452;SDS011;61687;56.232;43.854;2022-10-20T15:50:25;7.63;;;3.80;;
73452;SDS011;61687;56.232;43.854;2022-10-20T15:52:51;7.72;;;3.85;;
73452;SDS011;61687;56.232;43.854;2022-10-20T15:57:50;6.57;;;4.32;;
73452;SDS011;61687;56.232;43.854;2022-10-20T16:00:17;10.52;;;4.00;;
73452;SDS011;61687;56.232;43.854;2022-10-20T16:02:44;5.57;;;3.80;;
73452;SDS011;61687;56.232;43.854;2022-10-20T16:05:12;6.60;;;3.88;;
73452;SDS011;61687;56.232;43.854;2022-10-20T16:07:38;4.90;;;3.30;;
73452;SDS011;61687;56.232;43.854;2022-10-20T16:10:04;8.07;;;3.90;;
73452;SDS011;61687;56.232;43.854;2022-10-20T16:12:31;6.97;;;3.75;;
73452;SDS011;61687;56.232;43.854;2022-10-20T16:14:57;6.05;;;3.97;;
73452;SDS011;61687;56.232;43.854;2022-10-20T16:17:23;8.57;;;4.30;;
73452;SDS011;61687;56.232;43.854;2022-10-20T16:19:49;9.32;;;3.92;;
73452;SDS011;61687;56.232;43.854;2022-10-20T16:22:15;5.93;;;3.97;;
73452;SDS011;61687;56.232;43.854;2022-10-20T16:24:41;6.13;;;4.47;;
73452;SDS011;61687;56.232;43.854;2022-10-20T16:27:07;10.18;;;3.95;;
73452;SDS011;61687;56.232;43.854;2022-10-20T16:29:32;7.70;;;4.28;;
73452;SDS011;61687;56.232;43.854;2022-10-20T16:31:58;4.97;;;3.83;;
73452;SDS011;61687;56.232;43.854;2022-10-20T16:34:26;8.15;;;4.57;;
73452;SDS011;61687;56.232;43.854;2022-10-20T16:36:52;5.72;;;4.18;;
73452;SDS011;61687;56.232;43.854;2022-10-20T16:39:18;8.57;;;3.60;;
73452;SDS011;61687;56.232;43.854;2022-10-20T16:41:44;8.70;;;4.10;;
73452;SDS011;61687;56.232;43.854;2022-10-20T16:44:11;8.93;;;4.75;;
73452;SDS011;61687;56.232;43.854;2022-10-20T16:46:37;12.82;;;4.65;;
73452;SDS011;61687;56.232;43.854;2022-10-20T16:49:03;7.40;;;4.78;;
73452;SDS011;61687;56.232;43.854;2022-10-20T16:51:30;12.15;;;5.13;;
73452;SDS011;61687;56.232;43.854;2022-10-20T16:53:56;11.18;;;5.53;;
73452;SDS011;61687;56.232;43.854;2022-10-20T16:56:22;12.53;;;5.57;;
73452;SDS011;61687;56.232;43.854;2022-10-20T16:58:50;15.32;;;5.97;;
73452;SDS011;61687;56.232;43.854;2022-10-20T17:01:17;12.35;;;5.97;;
73452;SDS011;61687;56.232;43.854;2022-10-20T17:03:46;11.82;;;5.57;;